Time;durP1;ratioP1;P1;durP2;ratioP2;P2;SDS_P1;SDS_P2;PMS_P1;PMS_P2;Temp;Humidity;BMP_temperature;BMP_pressure;BME280_temperature;BME280_humidity;BME280_pressure;Samples;Min_cycle;Max_cycle;Signal;HPM_P1;HPM_P2
2024/05/03 00:01:20;;;;;;;1.02;0.13;;;12.70;99.90;;;;;;5381153;26;19996;-69
2024/05/03 00:03:45;;;;;;;0.15;0.00;;;12.60;99.90;;;;;;5365784;26;20073;-72
2024/05/03 00:06:11;;;;;;;0.43;0.17;;;12.70;99.90;;;;;;5346505;26;19997;-72
2024/05/03 00:08:37;;;;;;;0.40;0.20;;;12.70;99.90;;;;;;5359382;26;20008;-71
2024/05/03 00:11:02;;;;;;;1.65;0.20;;;12.70;99.90;;;;;;5380920;26;19992;-70
2024/05/03 00:13:28;;;;;;;0.15;0.05;;;12.70;99.90;;;;;;5380319;26;20000;-69
2024/05/03 00:15:53;;;;;;;0.45;0.20;;;12.60;99.90;;;;;;5380927;26;20162;-70
2024/05/03 00:18:19;;;;;;;0.00;0.00;;;12.60;99.90;;;;;;5380688;26;20016;-71
2024/05/03 00:20:45;;;;;;;0.22;0.20;;;12.60;99.90;;;;;;5380533;26;20000;-70
2024/05/03 00:23:10;;;;;;;1.05;0.20;;;12.70;99.90;;;;;;5380539;26;20008;-71
2024/05/03 00:25:36;;;;;;;0.20;0.15;;;12.60;99.90;;;;;;5380033;26;20008;-72
2024/05/03 00:28:02;;;;;;;0.52;0.20;;;12.60;99.90;;;;;;5380141;26;20011;-74
2024/05/03 00:30:27;;;;;;;0.90;0.50;;;12.60;99.90;;;;;;5380775;26;20063;-72
2024/05/03 00:32:53;;;;;;;0.35;0.13;;;12.60;99.90;;;;;;5380413;26;20032;-73
2024/05/03 00:35:18;;;;;;;1.30;0.20;;;12.60;99.90;;;;;;5379495;26;20480;-75
2024/05/03 00:37:44;;;;;;;0.52;0.10;;;12.60;99.90;;;;;;5380486;26;19996;-70
2024/05/03 00:40:10;;;;;;;0.00;0.00;;;12.50;99.90;;;;;;5380594;26;19992;-75
2024/05/03 00:42:36;;;;;;;0.30;0.30;;;12.60;99.90;;;;;;5351177;26;20016;-75
2024/05/03 00:45:02;;;;;;;0.10;0.10;;;12.60;99.90;;;;;;5345475;26;20431;-70
2024/05/03 00:47:28;;;;;;;0.20;0.10;;;12.60;99.90;;;;;;5376350;26;20447;-73
2024/05/03 00:49:54;;;;;;;1.25;0.20;;;12.60;99.90;;;;;;5380139;26;20012;-74
2024/05/03 00:52:20;;;;;;;0.50;0.15;;;12.60;99.90;;;;;;5380454;26;20433;-72
2024/05/03 00:54:46;;;;;;;0.47;0.20;;;12.60;99.90;;;;;;5345583;26;20020;-73
2024/05/03 00:57:13;;;;;;;0.28;0.20;;;12.40;99.90;;;;;;5345155;26;19993;-74
2024/05/03 00:59:40;;;;;;;1.85;0.15;;;12.50;99.90;;;;;;5359050;26;20004;-73
2024/05/03 01:02:05;;;;;;;0.43;0.10;;;12.50;99.90;;;;;;5383608;26;20041;-72
2024/05/03 01:04:31;;;;;;;0.68;0.25;;;12.50;99.90;;;;;;5382686;26;20000;-70
2024/05/03 01:06:57;;;;;;;0.70;0.22;;;12.50;99.90;;;;;;5383473;26;20016;-70
2024/05/03 01:09:23;;;;;;;0.47;0.22;;;12.50;99.90;;;;;;5383625;26;20004;-69
2024/05/03 01:11:49;;;;;;;0.43;0.20;;;12.40;99.90;;;;;;5383601;26;19997;-71
2024/05/03 01:14:15;;;;;;;0.20;0.20;;;12.40;99.90;;;;;;5383329;26;20441;-74
2024/05/03 01:16:40;;;;;;;0.30;0.10;;;12.40;99.90;;;;;;5362624;26;19997;-74
2024/05/03 01:19:07;;;;;;;0.47;0.17;;;12.40;99.90;;;;;;5348318;26;20021;-71
2024/05/03 01:21:56;;;;;;;0.20;0.10;;;12.40;99.90;;;;;;5364896;26;20012;-72
2024/05/03 01:24:22;;;;;;;0.10;0.00;;;12.40;99.90;;;;;;5382642;26;20069;-71
2024/05/03 01:26:47;;;;;;;0.10;0.10;;;12.40;99.90;;;;;;5383188;26;20012;-70
2024/05/03 01:29:13;;;;;;;0.30;0.10;;;12.30;99.90;;;;;;5383235;26;20000;-69
2024/05/03 01:31:41;;;;;;;0.10;0.10;;;12.40;99.90;;;;;;5382993;26;20008;-72
2024/05/03 01:34:07;;;;;;;0.43;0.10;;;12.30;99.90;;;;;;5356431;26;20429;-71
2024/05/03 01:36:33;;;;;;;0.03;0.03;;;12.40;99.90;;;;;;5348372;26;20001;-71
2024/05/03 01:38:59;;;;;;;0.10;0.03;;;12.40;99.90;;;;;;5350164;26;19993;-72
2024/05/03 01:41:29;;;;;;;0.08;0.00;;;12.30;99.90;;;;;;5382902;26;20050;-71
2024/05/03 01:43:55;;;;;;;1.65;0.10;;;12.30;99.90;;;;;;5382738;26;20036;-71
2024/05/03 01:46:37;;;;;;;0.13;0.10;;;12.30;99.90;;;;;;5382957;26;20000;-72
2024/05/03 01:49:03;;;;;;;0.20;0.10;;;12.30;99.90;;;;;;5382991;26;19992;-72
2024/05/03 01:51:28;;;;;;;0.30;0.20;;;12.30;99.90;;;;;;5356265;26;20046;-70
2024/05/03 01:53:54;;;;;;;0.10;0.00;;;12.20;99.90;;;;;;5347679;26;19997;-72
2024/05/03 01:56:20;;;;;;;0.57;0.13;;;12.20;99.90;;;;;;5347539;26;20073;-70
2024/05/03 01:58:45;;;;;;;0.00;0.00;;;12.20;99.90;;;;;;5348116;26;20345;-70
2024/05/03 02:01:11;;;;;;;0.00;0.00;;;12.20;99.90;;;;;;5347858;26;20001;-69
2024/05/03 02:03:40;;;;;;;0.65;0.20;;;12.20;99.90;;;;;;5347608;26;20005;-73
2024/05/03 02:06:09;;;;;;;0.50;0.20;;;12.10;99.90;;;;;;5346738;26;20119;-70
2024/05/03 02:08:35;;;;;;;0.43;0.10;;;12.10;99.90;;;;;;5347634;26;20004;-71
2024/05/03 02:11:01;;;;;;;0.88;0.20;;;12.10;99.90;;;;;;5347031;26;19997;-67
2024/05/03 02:13:26;;;;;;;0.30;0.05;;;12.10;99.90;;;;;;5346543;26;20012;-69
2024/05/03 02:15:52;;;;;;;1.85;0.10;;;12.10;99.90;;;;;;5347762;26;20083;-71
2024/05/03 02:18:18;;;;;;;0.75;0.10;;;12.00;99.90;;;;;;5347647;26;20448;-71
2024/05/03 02:20:43;;;;;;;0.10;0.10;;;12.00;99.90;;;;;;5347309;26;20010;-71
2024/05/03 02:23:09;;;;;;;0.20;0.10;;;12.00;99.90;;;;;;5347725;26;20032;-70
2024/05/03 02:25:35;;;;;;;0.55;0.20;;;12.00;99.90;;;;;;5373363;26;19996;-72
2024/05/03 02:28:00;;;;;;;0.30;0.20;;;12.00;99.90;;;;;;5382311;26;19996;-73
2024/05/03 02:30:26;;;;;;;1.20;0.28;;;12.00;99.90;;;;;;5382246;26;20466;-70
2024/05/03 02:32:51;;;;;;;0.30;0.20;;;12.00;99.90;;;;;;5382074;26;20476;-70
2024/05/03 02:35:17;;;;;;;0.85;0.30;;;12.10;99.90;;;;;;5381776;26;20000;-72
2024/05/03 02:37:43;;;;;;;0.70;0.30;;;12.00;99.90;;;;;;5366680;26;20012;-72
2024/05/03 02:40:08;;;;;;;0.60;0.20;;;12.00;99.90;;;;;;5347417;26;20001;-74
2024/05/03 02:42:34;;;;;;;0.55;0.30;;;12.00;99.90;;;;;;5372480;26;20042;-70
2024/05/03 02:45:00;;;;;;;1.25;0.60;;;12.00;99.90;;;;;;5381983;26;20436;-72
2024/05/03 02:47:27;;;;;;;1.23;0.50;;;11.90;99.90;;;;;;5382133;26;19992;-73
2024/05/03 02:49:53;;;;;;;1.90;0.77;;;11.90;99.90;;;;;;5382229;26;20004;-74
2024/05/03 02:52:18;;;;;;;0.60;0.38;;;11.90;99.90;;;;;;5382195;26;20012;-73
2024/05/03 02:54:44;;;;;;;0.50;0.35;;;11.90;99.90;;;;;;5381214;26;20074;-70
2024/05/03 02:57:10;;;;;;;0.70;0.60;;;11.90;99.90;;;;;;5381438;26;20008;-74
2024/05/03 02:59:37;;;;;;;1.15;0.57;;;11.90;99.90;;;;;;5381786;26;20012;-73
2024/05/03 03:02:03;;;;;;;1.63;0.60;;;11.90;99.90;;;;;;5381572;26;20011;-72
2024/05/03 03:04:28;;;;;;;0.47;0.28;;;11.90;99.90;;;;;;5375508;26;20000;-73
2024/05/03 03:06:54;;;;;;;3.15;0.60;;;11.90;99.90;;;;;;5381805;26;20012;-73
2024/05/03 03:09:20;;;;;;;0.75;0.50;;;11.90;99.90;;;;;;5381443;26;19992;-71
2024/05/03 03:11:45;;;;;;;0.57;0.50;;;11.90;99.90;;;;;;5382124;26;20028;-73
2024/05/03 03:14:11;;;;;;;1.75;0.70;;;11.80;99.90;;;;;;5381365;26;20010;-72
2024/05/03 03:16:40;;;;;;;3.70;0.68;;;11.90;99.90;;;;;;5381823;26;20648;-70
2024/05/03 03:19:06;;;;;;;4.05;0.50;;;11.80;99.90;;;;;;5381514;26;20024;-70
2024/05/03 03:21:42;;;;;;;1.05;0.60;;;11.70;99.90;;;;;;5381820;26;19996;-71
2024/05/03 03:24:14;;;;;;;0.98;0.50;;;11.80;99.90;;;;;;5380908;26;20032;-74
2024/05/03 03:26:40;;;;;;;0.88;0.50;;;11.80;99.90;;;;;;5381529;26;20336;-73
2024/05/03 03:29:07;;;;;;;1.45;0.63;;;11.70;99.90;;;;;;5381423;26;19996;-73
2024/05/03 03:31:32;;;;;;;1.20;0.38;;;11.70;99.90;;;;;;5359861;26;20008;-72
2024/05/03 03:33:58;;;;;;;2.30;0.63;;;11.70;99.90;;;;;;5354310;26;20035;-72
2024/05/03 03:36:25;;;;;;;0.43;0.40;;;11.70;99.90;;;;;;5381839;26;19996;-72
2024/05/03 03:38:54;;;;;;;1.13;0.60;;;11.70;99.90;;;;;;5380496;26;20015;-72
2024/05/03 03:41:21;;;;;;;1.58;0.40;;;11.60;99.90;;;;;;5381552;26;20444;-74
2024/05/03 03:43:49;;;;;;;2.35;0.70;;;11.60;99.90;;;;;;5381250;26;20004;-72
2024/05/03 03:46:15;;;;;;;2.25;0.60;;;11.60;99.90;;;;;;5381701;26;20000;-72
2024/05/03 03:48:41;;;;;;;0.43;0.40;;;11.60;99.90;;;;;;5381044;26;20077;-71
2024/05/03 03:51:07;;;;;;;0.68;0.47;;;11.60;99.90;;;;;;5359946;26;20004;-73
2024/05/03 03:53:34;;;;;;;0.75;0.40;;;11.70;99.90;;;;;;5364003;26;20015;-72
2024/05/03 03:56:00;;;;;;;0.93;0.50;;;11.70;99.90;;;;;;5380700;26;20001;-71
2024/05/03 03:58:26;;;;;;;1.40;0.55;;;11.70;99.90;;;;;;5381436;26;20000;-72
2024/05/03 04:00:51;;;;;;;1.85;0.50;;;11.70;99.90;;;;;;5380875;26;20076;-72
2024/05/03 04:03:17;;;;;;;1.15;0.47;;;11.70;99.90;;;;;;5380945;26;20000;-69
2024/05/03 04:05:43;;;;;;;0.57;0.43;;;11.70;99.90;;;;;;5380859;26;19996;-75
2024/05/03 04:08:08;;;;;;;1.35;0.85;;;11.60;99.90;;;;;;5381113;26;20015;-72
2024/05/03 04:10:34;;;;;;;1.85;0.60;;;11.50;99.90;;;;;;5355672;26;20005;-73
2024/05/03 04:12:59;;;;;;;1.38;0.55;;;11.60;99.90;;;;;;5345939;26;20000;-73
2024/05/03 04:15:25;;;;;;;2.75;0.93;;;11.60;99.90;;;;;;5344808;26;20492;-72
2024/05/03 04:17:51;;;;;;;0.50;0.43;;;11.60;99.90;;;;;;5345742;26;20000;-72
2024/05/03 04:20:16;;;;;;;2.28;0.68;;;11.60;99.90;;;;;;5362653;26;20000;-73
2024/05/03 04:22:42;;;;;;;1.45;0.70;;;11.60;99.90;;;;;;5379785;26;20014;-70
2024/05/03 04:25:08;;;;;;;0.68;0.43;;;11.60;99.90;;;;;;5379593;26;20000;-73
2024/05/03 04:27:33;;;;;;;1.58;0.77;;;11.60;99.90;;;;;;5379528;26;20001;-70
2024/05/03 04:30:01;;;;;;;0.52;0.40;;;11.50;99.90;;;;;;5375556;26;20000;-72
2024/05/03 04:32:27;;;;;;;1.35;0.50;;;11.60;99.90;;;;;;5352510;26;20008;-69
2024/05/03 04:34:52;;;;;;;0.20;0.20;;;11.60;99.90;;;;;;5345057;26;19997;-72
2024/05/03 04:37:18;;;;;;;1.45;0.60;;;11.60;99.90;;;;;;5313489;27;20001;-70
2024/05/03 04:39:44;;;;;;;0.40;0.30;;;11.60;99.90;;;;;;5337549;26;20008;-74
2024/05/03 04:42:09;;;;;;;0.80;0.40;;;11.50;99.90;;;;;;5382929;26;20004;-71
2024/05/03 04:44:35;;;;;;;2.78;0.60;;;11.50;99.90;;;;;;5382661;26;20493;-74
2024/05/03 04:47:01;;;;;;;1.10;0.40;;;11.50;99.90;;;;;;5383102;26;20024;-70
2024/05/03 04:49:27;;;;;;;0.95;0.50;;;11.40;99.90;;;;;;5371872;26;20008;-72
2024/05/03 04:51:52;;;;;;;0.85;0.50;;;11.30;99.90;;;;;;5354898;26;20013;-70
2024/05/03 04:54:18;;;;;;;0.38;0.30;;;11.20;99.90;;;;;;5371738;26;20008;-72
2024/05/03 04:56:44;;;;;;;1.20;0.60;;;11.10;99.90;;;;;;5382527;26;20406;-71
2024/05/03 04:59:09;;;;;;;1.88;0.70;;;11.00;99.90;;;;;;5365364;26;20048;-71
2024/05/03 05:01:35;;;;;;;0.90;0.45;;;11.00;99.90;;;;;;5361850;26;20004;-69
2024/05/03 05:04:01;;;;;;;1.75;0.65;;;10.90;99.90;;;;;;5382579;26;19996;-71
2024/05/03 05:06:27;;;;;;;2.63;1.10;;;10.80;99.90;;;;;;5360822;26;20472;-74
2024/05/03 05:08:55;;;;;;;3.05;1.23;;;10.70;99.90;;;;;;5347726;26;20001;-73
2024/05/03 05:11:24;;;;;;;4.10;1.38;;;10.60;99.90;;;;;;5364975;26;20015;-71
2024/05/03 05:13:50;;;;;;;3.80;1.48;;;10.50;99.90;;;;;;5372460;26;19993;-70
2024/05/03 05:16:20;;;;;;;4.35;1.70;;;10.50;99.90;;;;;;5357435;26;20001;-71
2024/05/03 05:18:46;;;;;;;3.50;1.70;;;10.50;99.90;;;;;;5363983;26;20017;-74
2024/05/03 05:23:56;;;;;;;3.55;1.60;;;10.50;99.90;;;;;;5373011;26;20073;-70
2024/05/03 05:26:22;;;;;;;2.70;1.50;;;10.60;99.90;;;;;;5371068;26;20346;-73
2024/05/03 05:28:48;;;;;;;4.13;1.70;;;10.60;99.90;;;;;;5382521;26;20000;-73
2024/05/03 05:31:14;;;;;;;6.22;1.70;;;10.60;99.90;;;;;;5382815;26;20329;-73
2024/05/03 05:33:39;;;;;;;5.22;1.77;;;10.60;99.90;;;;;;5377378;26;20920;-71
2024/05/03 05:36:10;;;;;;;4.20;1.75;;;10.60;99.90;;;;;;5347277;26;20007;-69
2024/05/03 05:38:35;;;;;;;7.95;1.83;;;10.60;99.90;;;;;;5347689;26;20070;-74
2024/05/03 05:41:01;;;;;;;4.45;1.55;;;10.70;99.90;;;;;;5351433;26;20412;-72
2024/05/03 05:43:27;;;;;;;3.97;1.33;;;10.70;99.90;;;;;;5382459;26;19996;-72
2024/05/03 05:45:53;;;;;;;4.50;1.75;;;10.80;99.90;;;;;;5382321;26;20517;-71
2024/05/03 05:48:19;;;;;;;5.28;1.55;;;10.90;99.90;;;;;;5349742;26;20016;-73
2024/05/03 05:50:44;;;;;;;4.38;1.40;;;11.00;99.90;;;;;;5371076;26;20084;-69
2024/05/03 05:53:10;;;;;;;4.03;1.40;;;11.10;99.90;;;;;;5353121;26;19997;-71
2024/05/03 05:55:36;;;;;;;3.25;1.05;;;11.10;99.90;;;;;;5346067;26;20017;-73
2024/05/03 05:58:01;;;;;;;2.38;1.00;;;11.10;99.90;;;;;;5368839;26;20073;-71
2024/05/03 06:00:27;;;;;;;2.75;1.02;;;11.20;99.90;;;;;;5364061;26;20005;-73
2024/05/03 06:02:53;;;;;;;4.75;1.35;;;11.20;99.90;;;;;;5344270;26;20372;-74
2024/05/03 06:05:18;;;;;;;1.15;0.65;;;11.40;99.90;;;;;;5346469;26;20384;-72
2024/05/03 06:07:47;;;;;;;3.58;1.23;;;11.50;99.90;;;;;;5342378;26;20522;-70
2024/05/03 06:10:15;;;;;;;2.55;0.90;;;11.70;99.90;;;;;;5352518;26;20004;-71
2024/05/03 06:12:41;;;;;;;1.60;0.80;;;11.80;99.90;;;;;;5378374;26;20030;-73
2024/05/03 06:15:08;;;;;;;1.02;0.60;;;11.90;99.90;;;;;;5380954;26;20010;-69
2024/05/03 06:17:35;;;;;;;3.22;0.98;;;11.90;99.90;;;;;;5354601;26;20005;-69
2024/05/03 06:20:02;;;;;;;3.00;1.10;;;11.60;99.90;;;;;;5346563;26;20004;-72
2024/05/03 06:22:28;;;;;;;1.58;0.80;;;11.60;99.90;;;;;;5346912;26;20082;-72
2024/05/03 06:24:53;;;;;;;2.55;0.80;;;11.80;99.90;;;;;;5367313;26;20008;-73
2024/05/03 06:27:22;;;;;;;3.70;1.13;;;12.00;99.90;;;;;;5355676;26;20019;-73
2024/05/03 06:29:47;;;;;;;1.40;0.60;;;12.20;99.90;;;;;;5345505;26;20021;-72
2024/05/03 06:32:13;;;;;;;2.33;0.93;;;12.20;99.90;;;;;;5346204;26;20345;-69
2024/05/03 06:34:39;;;;;;;3.25;0.93;;;12.00;99.90;;;;;;5346132;26;20003;-69
2024/05/03 06:37:05;;;;;;;4.03;1.05;;;11.90;99.90;;;;;;5346442;26;20004;-70
2024/05/03 06:39:30;;;;;;;3.22;0.95;;;11.80;99.90;;;;;;5346755;26;19996;-70
2024/05/03 06:41:57;;;;;;;5.82;1.05;;;11.70;99.90;;;;;;5346321;26;20005;-70
2024/05/03 06:44:22;;;;;;;2.17;0.80;;;11.60;99.90;;;;;;5309915;27;20430;-72
2024/05/03 06:46:49;;;;;;;3.85;0.88;;;11.50;99.90;;;;;;5312146;27;20009;-71
2024/05/03 06:49:16;;;;;;;5.15;1.05;;;11.30;99.90;;;;;;5312269;27;20049;-70
2024/05/03 06:51:42;;;;;;;5.55;1.20;;;11.30;99.90;;;;;;5352491;26;19993;-73
2024/05/03 06:54:08;;;;;;;3.15;1.20;;;11.30;99.90;;;;;;5381455;26;20019;-73
2024/05/03 06:56:33;;;;;;;3.38;0.80;;;11.30;99.90;;;;;;5381499;26;19996;-71
2024/05/03 06:58:59;;;;;;;2.47;1.10;;;11.20;99.90;;;;;;5379878;26;20456;-70
2024/05/03 07:01:25;;;;;;;3.00;0.88;;;11.30;99.90;;;;;;5381320;26;19996;-70
2024/05/03 07:03:50;;;;;;;1.80;0.77;;;11.40;99.90;;;;;;5380882;26;20459;-73
2024/05/03 07:06:16;;;;;;;3.92;1.00;;;11.40;99.90;;;;;;5381308;26;20007;-71
2024/05/03 07:08:41;;;;;;;1.77;0.60;;;11.50;99.90;;;;;;5379726;26;20000;-71
2024/05/03 07:11:07;;;;;;;3.63;1.10;;;11.60;99.90;;;;;;5345805;26;20011;-71
2024/05/03 07:13:33;;;;;;;3.53;0.93;;;11.70;99.90;;;;;;5345908;26;20004;-72
2024/05/03 07:15:59;;;;;;;3.03;0.95;;;11.90;99.90;;;;;;5345984;26;20007;-72
2024/05/03 07:18:24;;;;;;;3.03;0.88;;;12.10;99.90;;;;;;5345978;26;20001;-71
2024/05/03 07:20:52;;;;;;;5.78;1.13;;;12.30;99.90;;;;;;5346449;26;19989;-71
2024/05/03 07:23:18;;;;;;;2.53;0.77;;;12.70;99.90;;;;;;5370937;26;20369;-72
2024/05/03 07:25:44;;;;;;;1.70;0.60;;;13.00;99.90;;;;;;5381101;26;20007;-73
2024/05/03 07:28:09;;;;;;;4.50;0.80;;;13.20;99.90;;;;;;5380754;26;20059;-70
2024/05/03 07:30:35;;;;;;;2.85;0.82;;;13.40;99.90;;;;;;5381161;26;20069;-73
2024/05/03 07:33:00;;;;;;;5.82;1.00;;;13.50;99.90;;;;;;5379766;26;20080;-74
2024/05/03 07:35:26;;;;;;;2.50;0.70;;;13.80;99.90;;;;;;5345742;26;20437;-72
2024/05/03 07:37:53;;;;;;;1.38;0.57;;;14.20;99.90;;;;;;5345722;26;20050;-74
2024/05/03 07:40:18;;;;;;;4.88;1.33;;;14.90;99.90;;;;;;5345735;26;20365;-72
2024/05/03 07:42:44;;;;;;;3.50;1.25;;;16.00;99.90;;;;;;5345283;26;20008;-73
2024/05/03 07:45:10;;;;;;;3.80;0.52;;;16.60;99.90;;;;;;5345500;26;19997;-71
2024/05/03 07:47:35;;;;;;;2.85;0.73;;;16.70;99.20;;;;;;5345472;26;20052;-72
2024/05/03 07:50:01;;;;;;;4.00;0.60;;;16.60;98.20;;;;;;5345620;26;20076;-72
2024/05/03 07:52:27;;;;;;;2.33;0.50;;;16.70;96.30;;;;;;5345824;26;20000;-71
2024/05/03 07:54:54;;;;;;;2.72;0.65;;;16.30;96.30;;;;;;5344969;26;20004;-73
2024/05/03 07:57:19;;;;;;;2.05;0.47;;;16.10;96.20;;;;;;5345869;26;20137;-71
2024/05/03 07:59:45;;;;;;;4.57;0.93;;;16.00;96.50;;;;;;5345666;26;20028;-73
2024/05/03 08:02:11;;;;;;;3.25;0.60;;;16.00;96.80;;;;;;5345242;26;20012;-72
2024/05/03 08:04:37;;;;;;;3.13;0.52;;;15.80;96.10;;;;;;5374300;26;20077;-73
2024/05/03 08:07:03;;;;;;;4.88;0.80;;;15.40;96.60;;;;;;5380664;26;20008;-73
2024/05/03 08:09:29;;;;;;;1.70;0.60;;;15.30;97.20;;;;;;5358808;26;20037;-74
2024/05/03 08:11:56;;;;;;;4.20;0.70;;;15.00;96.90;;;;;;5345344;26;19993;-73
2024/05/03 08:14:22;;;;;;;5.30;0.70;;;14.70;98.10;;;;;;5346385;26;20093;-72
2024/05/03 08:16:48;;;;;;;2.55;0.75;;;14.60;98.30;;;;;;5380456;26;20321;-71
2024/05/03 08:19:13;;;;;;;2.00;0.60;;;14.20;98.00;;;;;;5380422;26;20000;-73
2024/05/03 08:21:40;;;;;;;2.53;0.77;;;14.10;99.90;;;;;;5364608;26;19999;-73
2024/05/03 08:24:06;;;;;;;2.95;0.70;;;14.00;99.70;;;;;;5349346;26;20033;-72
2024/05/03 08:26:32;;;;;;;3.47;0.82;;;13.70;99.90;;;;;;5380499;26;19993;-71
2024/05/03 08:28:57;;;;;;;2.90;0.60;;;13.70;99.90;;;;;;5379502;26;20019;-73
2024/05/03 08:31:23;;;;;;;8.52;0.88;;;13.70;99.90;;;;;;5380080;26;20459;-71
2024/05/03 08:33:49;;;;;;;3.20;0.80;;;13.70;99.90;;;;;;5379584;26;20003;-70
2024/05/03 08:36:14;;;;;;;5.65;1.00;;;13.70;99.90;;;;;;5379956;26;20000;-72
2024/05/03 08:38:40;;;;;;;2.45;0.80;;;13.80;99.90;;;;;;5379962;26;20065;-70
2024/05/03 08:41:07;;;;;;;3.53;0.68;;;13.90;99.90;;;;;;5344517;26;20041;-72
2024/05/03 08:43:47;;;;;;;1.98;0.60;;;13.70;99.90;;;;;;5344654;26;20001;-72
2024/05/03 08:46:15;;;;;;;4.45;0.90;;;13.70;99.90;;;;;;5369911;26;20067;-70
2024/05/03 08:48:51;;;;;;;3.05;0.60;;;13.70;99.90;;;;;;5379446;26;20015;-72
2024/05/03 08:51:19;;;;;;;1.92;0.68;;;13.90;99.90;;;;;;5379788;26;20027;-73
2024/05/03 08:53:49;;;;;;;3.80;0.88;;;13.90;99.90;;;;;;5379657;26;20004;-72
2024/05/03 08:56:16;;;;;;;4.20;1.00;;;13.80;99.90;;;;;;5379570;26;20011;-71
2024/05/03 08:58:43;;;;;;;1.27;0.68;;;13.50;99.90;;;;;;5379483;26;20019;-70
2024/05/03 09:01:08;;;;;;;4.20;0.95;;;13.40;99.90;;;;;;5379266;26;20032;-70
2024/05/03 09:03:34;;;;;;;2.85;0.73;;;13.30;99.90;;;;;;5378866;26;20309;-72
2024/05/03 09:06:01;;;;;;;1.80;0.73;;;13.20;99.90;;;;;;5379286;26;20019;-69
2024/05/03 09:08:39;;;;;;;3.78;0.80;;;13.80;99.90;;;;;;5365922;26;20001;-70
2024/05/03 09:11:08;;;;;;;2.45;0.75;;;14.90;99.90;;;;;;5344168;26;20005;-72
2024/05/03 09:13:34;;;;;;;5.00;0.60;;;17.90;97.00;;;;;;5362453;26;19996;-74
2024/05/03 09:15:59;;;;;;;2.35;0.60;;;20.90;88.80;;;;;;5379444;26;20004;-74
2024/05/03 09:18:25;;;;;;;2.72;0.68;;;23.50;72.90;;;;;;5379398;26;20003;-71
2024/05/03 09:20:51;;;;;;;3.42;0.57;;;25.40;63.60;;;;;;5350173;26;20539;-72
2024/05/03 09:23:17;;;;;;;3.67;1.02;;;25.80;57.50;;;;;;5347675;26;19997;-75
2024/05/03 09:25:42;;;;;;;5.43;0.70;;;25.30;57.70;;;;;;5347644;26;19997;-71
2024/05/03 09:28:08;;;;;;;1.98;0.75;;;23.70;58.70;;;;;;5347357;26;20016;-73
2024/05/03 09:30:42;;;;;;;1.65;0.32;;;22.60;60.20;;;;;;5364555;26;20000;-73
2024/05/03 09:33:08;;;;;;;1.63;0.60;;;21.00;61.70;;;;;;5382641;26;20083;-71
2024/05/03 09:35:34;;;;;;;1.70;0.52;;;19.60;66.50;;;;;;5382253;26;20004;-72
2024/05/03 09:37:59;;;;;;;2.35;0.70;;;19.50;66.00;;;;;;5382562;26;20037;-72
2024/05/03 09:40:25;;;;;;;1.33;0.43;;;19.30;68.00;;;;;;5382818;26;19996;-71
2024/05/03 09:42:51;;;;;;;5.45;0.80;;;19.90;67.20;;;;;;5382541;26;20379;-71
2024/05/03 09:45:16;;;;;;;2.03;0.50;;;20.40;67.20;;;;;;5382116;26;20000;-71
2024/05/03 09:47:43;;;;;;;2.17;0.65;;;19.70;66.20;;;;;;5382235;26;19999;-72
2024/05/03 09:50:21;;;;;;;3.13;1.00;;;19.10;68.10;;;;;;5382500;26;20325;-71
2024/05/03 09:52:54;;;;;;;0.88;0.38;;;19.30;68.90;;;;;;5382214;26;20041;-71
2024/05/03 09:55:27;;;;;;;3.92;0.65;;;19.50;69.10;;;;;;5382991;26;20433;-73
2024/05/03 09:57:54;;;;;;;3.67;1.02;;;19.90;68.80;;;;;;5382213;26;20000;-73
2024/05/03 10:00:21;;;;;;;1.92;0.60;;;20.90;64.70;;;;;;5382788;26;20007;-73
2024/05/03 10:03:19;;;;;;;1.83;0.60;;;20.30;66.20;;;;;;5381773;26;20019;-74
2024/05/03 10:05:46;;;;;;;1.52;0.60;;;19.70;67.80;;;;;;5382379;26;20096;-71
2024/05/03 10:08:13;;;;;;;2.42;0.60;;;18.70;69.60;;;;;;5382223;26;20054;-73
2024/05/03 10:10:38;;;;;;;3.40;0.60;;;18.30;70.40;;;;;;5351118;26;20020;-70
2024/05/03 10:13:04;;;;;;;2.15;0.50;;;17.80;71.50;;;;;;5347262;26;20001;-69
2024/05/03 10:15:32;;;;;;;3.78;0.43;;;17.60;73.20;;;;;;5367196;26;20000;-75
2024/05/03 10:17:58;;;;;;;2.15;0.60;;;17.50;73.50;;;;;;5357309;26;20001;-73
2024/05/03 10:20:28;;;;;;;2.13;0.55;;;17.60;72.20;;;;;;5347096;26;20116;-71
2024/05/03 10:22:56;;;;;;;5.97;0.77;;;17.80;73.60;;;;;;5346844;26;20365;-74
2024/05/03 10:25:25;;;;;;;2.55;1.88;;;17.60;72.00;;;;;;5346336;26;20445;-72
2024/05/03 10:27:55;;;;;;;2.70;0.70;;;17.20;74.00;;;;;;5346751;26;19996;-72
2024/05/03 10:30:21;;;;;;;1.95;0.85;;;16.80;75.40;;;;;;5352651;26;20024;-72
2024/05/03 10:32:47;;;;;;;1.88;0.65;;;16.40;76.10;;;;;;5380564;26;20007;-74
2024/05/03 10:35:23;;;;;;;1.67;0.50;;;16.10;78.40;;;;;;5380686;26;20011;-70
2024/05/03 10:37:56;;;;;;;3.60;0.80;;;16.10;78.90;;;;;;5381911;26;19995;-70
2024/05/03 10:40:28;;;;;;;2.55;0.88;;;16.30;78.80;;;;;;5381749;26;20337;-72
2024/05/03 10:42:58;;;;;;;4.18;0.90;;;16.70;79.40;;;;;;5382166;26;20424;-72
2024/05/03 10:45:24;;;;;;;3.20;0.63;;;16.70;76.90;;;;;;5350153;26;20398;-71
2024/05/03 10:47:50;;;;;;;1.63;0.70;;;16.60;77.50;;;;;;5381433;26;20093;-72
2024/05/03 10:50:16;;;;;;;2.90;1.50;;;16.50;77.40;;;;;;5381503;26;20008;-71
2024/05/03 10:52:43;;;;;;;1.33;0.50;;;16.50;77.60;;;;;;5335316;26;20005;-72
2024/05/03 10:55:08;;;;;;;2.47;0.70;;;16.80;76.70;;;;;;5311927;27;20002;-72
2024/05/03 10:57:34;;;;;;;3.60;0.73;;;16.70;77.00;;;;;;5312017;27;20016;-74
2024/05/03 11:00:00;;;;;;;1.63;0.70;;;16.70;76.10;;;;;;5378344;26;20011;-73
2024/05/03 11:02:29;;;;;;;5.47;0.90;;;16.50;76.70;;;;;;5381874;26;20003;-71
2024/05/03 11:04:55;;;;;;;1.40;0.52;;;16.20;77.30;;;;;;5380731;26;20033;-72
2024/05/03 11:07:23;;;;;;;3.15;0.70;;;16.20;78.90;;;;;;5381494;26;20440;-72
2024/05/03 11:09:49;;;;;;;3.55;0.70;;;16.30;79.60;;;;;;5374790;26;19992;-73
2024/05/03 11:12:15;;;;;;;3.25;0.65;;;16.50;79.50;;;;;;5346330;26;20001;-71
2024/05/03 11:14:41;;;;;;;2.63;0.90;;;16.50;79.50;;;;;;5345948;26;20396;-71
2024/05/03 11:17:07;;;;;;;1.65;0.50;;;16.30;79.40;;;;;;5377987;26;20004;-72
2024/05/03 11:19:33;;;;;;;4.03;0.85;;;16.30;78.50;;;;;;5381530;26;20318;-72
2024/05/03 11:21:59;;;;;;;2.70;0.63;;;16.10;79.20;;;;;;5381031;26;20004;-72
2024/05/03 11:24:30;;;;;;;1.67;0.70;;;15.90;81.00;;;;;;5380937;26;20463;-73
2024/05/03 11:27:02;;;;;;;2.53;0.80;;;15.60;80.70;;;;;;5380614;26;20054;-70
2024/05/03 11:29:31;;;;;;;;;;;15.50;81.70;;;;;;5381659;26;20061;-70
2024/05/03 11:31:58;;;;;;;2.88;0.70;;;15.50;80.80;;;;;;5381517;26;19932;-71
2024/05/03 11:34:23;;;;;;;0.88;0.35;;;15.40;81.00;;;;;;5380015;26;20449;-70
2024/05/03 11:36:50;;;;;;;2.50;0.80;;;15.40;82.20;;;;;;5374873;26;20091;-72
2024/05/03 11:39:19;;;;;;;2.85;1.08;;;15.40;82.10;;;;;;5343533;26;19997;-71
2024/05/03 11:41:44;;;;;;;1.42;0.60;;;15.30;83.00;;;;;;5337490;26;20009;-70
2024/05/03 11:44:11;;;;;;;6.10;0.90;;;15.00;83.10;;;;;;5354735;26;20081;-72
2024/05/03 11:46:38;;;;;;;3.30;0.70;;;14.80;84.10;;;;;;5380826;26;20008;-70
2024/05/03 11:49:07;;;;;;;3.83;0.57;;;14.80;84.50;;;;;;5380756;26;20000;-74
2024/05/03 11:51:34;;;;;;;4.80;0.90;;;14.70;85.10;;;;;;5365294;26;20012;-74
2024/05/03 11:54:05;;;;;;;2.17;0.73;;;14.90;84.70;;;;;;5345330;26;20040;-70
2024/05/03 11:56:32;;;;;;;2.63;0.70;;;15.00;85.50;;;;;;5345652;26;20001;-73
2024/05/03 11:58:59;;;;;;;1.17;0.60;;;15.20;84.20;;;;;;5345788;26;20005;-73
2024/05/03 12:01:26;;;;;;;4.15;0.73;;;15.50;83.80;;;;;;5345922;26;20007;-72
2024/05/03 12:03:52;;;;;;;1.52;0.50;;;16.10;82.20;;;;;;5345515;26;20005;-74
2024/05/03 12:06:18;;;;;;;1.70;0.63;;;16.50;80.20;;;;;;5345461;26;20001;-72
2024/05/03 12:08:44;;;;;;;3.30;0.80;;;16.60;79.60;;;;;;5380540;26;20007;-73
2024/05/03 12:11:10;;;;;;;4.75;0.80;;;17.00;80.10;;;;;;5380464;26;20000;-71
2024/05/03 12:13:36;;;;;;;2.50;0.65;;;17.40;78.10;;;;;;5379383;26;20001;-71
2024/05/03 12:16:01;;;;;;;3.08;0.60;;;17.90;76.80;;;;;;5380009;26;20011;-74
2024/05/03 12:18:27;;;;;;;3.75;0.75;;;18.40;75.20;;;;;;5380240;26;20007;-72
2024/05/03 12:20:53;;;;;;;3.00;0.90;;;18.70;73.60;;;;;;5380985;26;20490;-74
2024/05/03 12:23:18;;;;;;;3.65;0.77;;;19.20;72.50;;;;;;5380116;26;20494;-71
2024/05/03 12:25:47;;;;;;;2.95;0.65;;;19.00;71.50;;;;;;5352765;26;20449;-70
2024/05/03 12:28:13;;;;;;;2.53;0.70;;;18.90;72.60;;;;;;5365007;26;19996;-72
2024/05/03 12:30:40;;;;;;;2.08;0.60;;;19.10;71.70;;;;;;5380065;26;20006;-69
2024/05/03 12:33:06;;;;;;;1.42;0.50;;;19.20;72.00;;;;;;5379698;26;20324;-73
2024/05/03 12:35:32;;;;;;;1.98;0.52;;;19.20;71.30;;;;;;5379792;26;20364;-70
2024/05/03 12:37:57;;;;;;;1.80;0.75;;;18.90;71.70;;;;;;5362777;26;20437;-75
2024/05/03 12:40:23;;;;;;;3.25;0.60;;;18.90;71.00;;;;;;5345621;26;19997;-73
2024/05/03 12:42:49;;;;;;;3.22;0.70;;;19.20;70.60;;;;;;5343892;26;19993;-71
2024/05/03 12:45:14;;;;;;;1.33;0.60;;;19.20;69.30;;;;;;5351904;26;19996;-73
2024/05/03 12:47:40;;;;;;;3.50;0.75;;;19.10;70.20;;;;;;5379431;26;20293;-70